December 2021: Check out the pages added or updated for Weather Warnings, Sea Area Forecasts, Marine Warnings & Sea Crossings Forecasts.

Ireland METAR reports

 

EIDW - Dublin Airport, Ireland
Distance from station: WNW 13km
Updated: 25/01/2022 13:00
Mostly cloudy
Mostly cloudy
 Wind from varies
Wind: varies 6 km/h
Temperature: 7°C
Dew Point: 2°C
Humidity: 71%
Barometer: 1033 hPa
Clouds: Mostly cloudy
Visibility: 10 km
Cloud details: Few Clouds 549 m
Mostly cloudy 853 m
2022/01/25 13:00 EIDW 251300Z VRB03KT 9999 FEW018 BKN028 07/02 Q1033 NOSIG
EIME - Casement (mil), Ireland
Distance from station: WSW 26km
Updated: 25/01/2022 13:00
Overcast
Overcast
 Wind from SW
Wind: SW 17 km/h
Temperature: 7°C
Wind Chill: 4°C
Dew Point: 3°C
Humidity: 76%
Barometer: 1033 hPa
Clouds: Overcast
Visibility: 10 km
Cloud details: Overcast 823 m
2022/01/25 13:00 EIME 251300Z 23009KT 9999 OVC027 07/03 Q1033
 
EGAC - Belfast Harbour, United Kingdom
Distance from station: N 140km
Updated: 25/01/2022 13:20
Overcast
Overcast
 Wind from WSW
Wind: WSW 11 km/h, Gust: 20 km/h
Temperature: 7°C
Wind Chill: 5°C
Dew Point: 2°C
Humidity: 71%
Barometer: 1032 hPa
Clouds: Overcast
Visibility: 10 km
Cloud details: Overcast 762 m
2022/01/25 13:20 EGAC 251320Z AUTO 24006G11KT 200V290 9999 OVC025/// 07/02 Q1032
EGAA - Belfast/Aldergro, United Kingdom
Distance from station: N 141km
Updated: 25/01/2022 13:20
Overcast
Overcast
 Wind from SW
Wind: SW 13 km/h
Temperature: 6°C
Wind Chill: 3°C
Dew Point: 3°C
Humidity: 81%
Barometer: 1031 hPa
Clouds: Overcast
Visibility: 10 km
Cloud details: Overcast 701 m
2022/01/25 13:20 EGAA 251320Z AUTO 22007KT 9999 OVC023 06/03 Q1031
 
EIWF - Waterford Arpt, Ireland
Distance from station: SSW 148km
Updated: 25/01/2022 13:00
Mostly cloudy
Mostly cloudy
 Wind from NE
Wind: NE 2 km/h
Temperature: 7°C
Dew Point: 5°C
Humidity: 87%
Barometer: 1033 hPa
Clouds: Mostly cloudy
Visibility: 10 km
Cloud details: Few Clouds 792 m
Mostly cloudy 914 m
2022/01/25 13:00 EIWF 251300Z 05001KT 9999 FEW026 BKN030 07/05 Q1033
EIKN - Connaught Apt, Ireland
Distance from station: WNW 191km
Updated: 25/01/2022 10:00
NOT Current
Mostly cloudy
Mostly cloudy
 Wind from SSE
Wind: SSE 4 km/h
Temperature: 5°C
Dew Point: 4°C
Humidity: 93%
Barometer: 1031 hPa
Clouds: Mostly cloudy
Visibility: 10 km
Cloud details: Partly cloudy 671 m
Mostly cloudy 6706 m
2022/01/25 10:00 EIKN 251000Z 16002KT 9999 SCT022 BKN220 05/04 Q1031 NOSIG
 
EISG - Sligo Arpt, Ireland
Distance from station: WNW 195km
Updated: 25/01/2022 13:00
Partly cloudy
Partly cloudy
 Wind from SSE
Wind: SSE 9 km/h
Temperature: 8°C
Wind Chill: 6°C
Dew Point: 3°C
Humidity: 71%
Barometer: 1031 hPa
Clouds: Partly cloudy
Visibility: 10 km
Cloud details: Partly cloudy 1067 m
2022/01/25 13:00 EISG 251300Z 16005KT 120V200 9999 SCT035 08/03 Q1031
EGAE - Eglinton/Londond, United Kingdom
Distance from station: NNW 198km
Updated: 25/01/2022 13:20
Few Clouds
Few Clouds
 Wind from SSW
Wind: SSW 15 km/h
Temperature: 8°C
Wind Chill: 5°C
Dew Point: 4°C
Humidity: 76%
Barometer: 1030 hPa
Clouds: Few Clouds
Visibility: 10 km
Cloud details: Few Clouds 914 m
2022/01/25 13:20 EGAE 251320Z 21008KT 180V240 9999 FEW030 08/04 Q1030
 
EINN - Shannon Airport, Ireland
Distance from station: WSW 204km
Updated: 25/01/2022 13:00
Mostly cloudy
Mostly cloudy
 Wind from W
Wind: W 9 km/h
Temperature: 8°C
Wind Chill: 6°C
Dew Point: 5°C
Humidity: 82%
Barometer: 1033 hPa
Clouds: Mostly cloudy
Visibility: 10 km
Cloud details: Few Clouds 457 m
Mostly cloudy 1097 m
2022/01/25 13:00 EINN 251300Z 28005KT 9999 FEW015 BKN036 08/05 Q1033 NOSIG
EICK - Cork Arpt/Corcai, Ireland
Distance from station: SW 234km
Updated: 25/01/2022 13:00
Mostly cloudy
Mostly cloudy
 Wind from SSE
Wind: SSE 7 km/h
Temperature: 8°C
Wind Chill: 7°C
Dew Point: 5°C
Humidity: 82%
Barometer: 1032 hPa
Clouds: Mostly cloudy
Visibility: 10 km
Cloud details: Partly cloudy 335 m
Mostly cloudy 914 m
2022/01/25 13:00 EICK 251300Z 16004KT 9999 SCT011 BKN030 08/05 Q1032 NOSIG